Cairo, NE (68824)

1:50 AM CDT on August 02, 2014 (GMT -0500)
Northview (KNEGRAND17) Elev 1880 ft | 40.95 °N, 98.40 °W | Change Station

Current weather conditions updated 3 minutes ago

Clear
Clear
67.3 °F
Feels Like 67.3 °F
N
4.2
Wind Variable Wind from ESE

Today is forecast to be nearly the same temperature as yesterday.

Today
High -- | Low -- °F
--% Chance of Precip.
Yesterday
High -- | Low -- °F
Precip. -- in
6:31 AM 8:49 PM
Waxing Crescent, 33% visible
Pressure 30.10 in
Visibility 10.0 miles
Clouds Clear
Dew Point 60 °F
Humidity 77%
Rainfall 0.00 in
Snow Depth Not available.
UV 0 out of 12
Pollen 7.60 out of 12
Air Quality Not available.
Flu Activity Not available.
METAR KGRI 020553Z AUTO 13005KT 10SM CLR 19/16 A3014 RMK AO2 SLP193 T01890161 10272 20183 402940144 53006

More Conditions Fewer Conditions

Pressure 30.10 in
Visibility 10.0 miles
Clouds Clear
Dew Point 60 °F
Humidity 77%
Rainfall 0.00 in
Snow Depth Not available.
UV 0 out of 12
Pollen 7.60 out of 12
Air Quality Not available.
Flu Activity Not available.
METAR KGRI 020553Z AUTO 13005KT 10SM CLR 19/16 A3014 RMK AO2 SLP193 T01890161 10272 20183 402940144 53006

More Conditions Fewer Conditions

10-Day Weather Forecast

Almanac

Astronomy

Aug. 02, 2014 Rise Set
Actual Time 6:31 AM CDT 8:49 PM CDT
Civil Twilight 6:00 AM CDT 9:20 PM CDT
Nautical Twilight 5:22 AM CDT 9:57 PM CDT
Astronomical Twilight 4:40 AM CDT 10:39 PM CDT
Moon 12:58 PM CDT No Moon Set
Length of Visible Light 15h 19m
Length of Day
14h 17m
Tomorrow will be 2m 8s shorter.
Waxing Crescent, 33% of the Moon is Illuminated
Today
Waxing Crescent
Aug 3
First Quarter
Aug 10
Full
Aug 17
Last Quarter
Aug 25
New

Today's Extremes

State Highs State Lows

Community

WunderPhotos

Upload Photos

1,739,830 photos uploaded!

Nearby

Snow Depth

Station Depth Elevation
No new snow has been reported.

Earthquake Activity

City Distance Mag. Time & Date
No recent earthquake activity has been reported nearby.
Minimum magnitude displayed is 2.5.

Coastal Water Temperatures

Place Temperature
No Stations Reporting

Nearby Weather Stations

Station Location Temp. Dew Point Humidity Wind Precip. Elev Updated Type
Northview, Grand Island, NE 67.3 °F 60 °F 77% ESE  at  4.2 mph - / hr 1880 ft 1:47 AM CDT Normal
10th and Custer, Grand Island, NE 68.9 °F 62 °F 79% ESE  at  5.0 mph 0.00 in / hr 1865 ft 1:50 AM CDT Rapid Fire
MesoWest CORY1 , Wood River, NE 62 °F - - North  at  - 0.00 in / hr 1990 ft 12:00 AM CDT MADIS
Riverside/Barr, Grand Island, NE 66.5 °F 62 °F 84% East  at  0.0 mph 0.00 in / hr 1856 ft 1:50 AM CDT Rapid Fire
Barr, Grand Island, NE 67.3 °F 63 °F 85% ENE  at  2.2 mph - / hr 1864 ft 1:37 AM CDT Normal

Show More Stations Show Fewer Stations